Forside
METAR-TAF:

METAR-TAF

Lufthavne :

Whiteman Air Force Base

Knob Noster, Missouri, USA

Breddekreds: 38-44N, længdekreds: 093-33W, højde: 265 m

Aktuelle vejr

Denne rapport blev lavet for 30 minutter siden, kl. 06:56 UTC
Vind 8 kt fra sydsydvest
Temperatur 6°C
Fugtighed 81%
Tryk 1019 hPa
Sigt: 16.1 km
Nogle få skyer i en højde af 20000 ft

METAR: KSZL 220656Z 20008KT 10SM FEW200 06/03 A3010 RMK AO2A SLP197 T00630026

Tid: 02:26 (07:26 UTC)

Vejrudsigter

Denne rapport blev lavet for 4 timer og 26 minutter siden, kl. 03:00 UTC
Foreløbig gælder fra 22 på 03 UTC til 23 på 09 UTC
Vind 9 kt fra sydsydvest
Sigt 10 km eller mere
skyfri
ændring
fra 22 på 10 UTC til 22 på 11 UTC
Vind 9 kt fra sydsydvest
Sigt 10 km eller mere
skyfri
ændring
fra 23 på 00 UTC til 23 på 01 UTC
Vind 9 kt fra vestnordvest
Sigt 10 km eller mere
Spredte skyer i en højde af 3000 ft

TAF: KSZL 220300Z 2203/2309 20009KT 9999 SKC WS011/23035KT QNH3009INS BECMG 2210/2211 21009KT 9999 SKC QNH3011INS BECMG 2300/2301 30009KT 9999 SCT030 QNH3016INS TX21/2220Z TN09/2211Z

Vejrobservationer og prognoser fra mere end 4000 lufthavne (METAR og TAF).

De gule og røde prikker repræsenterer de meteorologiske stationer.

Flyt musen over at se navnet på stationen.

Så klik over at se vejr observationer og prognoser.

At skifte det kort: Klik på de grønne knapper med et sort kors for at zoome ind; på den grønne knap med en bindestreg for at zoome ud; eller på de grønne pile for tilstødende kort.


METAR-TAF: